Time,TemperatureF,DewpointF,PressureIn,WindDirection,WindDirectionDegrees,WindSpeedMPH,WindSpeedGustMPH,Humidity,HourlyPrecipIn,Conditions,Clouds,dailyrainin,SoftwareType,DateUTC
2013-04-09 00:00:00,46.4,41.5,29.93,WNW,302,26.4,26.4,83,0.00,,---,0.00,VWS V14.01,2013-04-09 04:00:00,
2013-04-09 00:01:00,46.4,41.5,29.93,NNW,339,21.0,26.4,83,0.00,,---,0.00,VWS V14.01,2013-04-09 04:01:00,
2013-04-09 00:06:00,46.2,41.3,29.93,NW,323,21.9,21.9,83,0.00,,---,0.00,VWS V14.01,2013-04-09 04:06:00,
2013-04-09 00:11:00,46.0,41.2,29.93,NW,313,12.5,12.5,83,0.00,,---,0.00,VWS V14.01,2013-04-09 04:11:00,
2013-04-09 00:16:00,46.0,41.5,29.93,NNW,331,12.5,12.5,84,0.00,,---,0.00,VWS V14.01,2013-04-09 04:16:00,
2013-04-09 00:21:00,45.9,41.3,29.93,NW,313,7.2,16.6,84,0.00,,---,0.00,VWS V14.01,2013-04-09 04:21:00,
2013-04-09 00:26:00,45.9,41.3,29.96,NW,325,14.3,21.0,84,0.00,,---,0.00,VWS V14.01,2013-04-09 04:26:00,
2013-04-09 00:32:00,45.9,41.3,29.96,NNW,337,20.1,20.1,84,0.00,,---,0.00,VWS V14.01,2013-04-09 04:32:00,
2013-04-09 00:37:00,45.9,41.3,29.96,NW,318,17.4,17.4,84,0.00,,---,0.00,VWS V14.01,2013-04-09 04:37:00,
2013-04-09 00:42:00,45.7,41.1,29.96,West,267,0.0,15.2,84,0.00,,---,0.00,VWS V14.01,2013-04-09 04:42:00,
2013-04-09 00:47:00,45.7,41.1,29.96,WNW,303,20.1,20.1,84,0.00,,---,0.00,VWS V14.01,2013-04-09 04:47:00,
2013-04-09 00:52:00,45.9,41.6,29.96,NNW,328,16.1,16.1,85,0.00,,---,0.00,VWS V14.01,2013-04-09 04:52:00,
2013-04-09 00:57:00,45.9,41.6,29.99,NNW,345,12.5,12.5,85,0.00,,---,0.00,VWS V14.01,2013-04-09 04:57:00,
2013-04-09 01:02:00,45.9,41.6,29.99,West,279,15.2,15.2,85,0.00,,---,0.00,VWS V14.01,2013-04-09 05:02:00,
2013-04-09 01:07:00,45.9,41.6,29.99,NNW,339,14.3,14.3,85,0.00,,---,0.00,VWS V14.01,2013-04-09 05:07:00,
2013-04-09 01:12:00,45.9,41.6,29.99,NW,316,10.7,10.7,85,0.00,,---,0.00,VWS V14.01,2013-04-09 05:12:00,
2013-04-09 01:17:00,45.7,41.4,29.99,NNW,341,14.3,14.3,85,0.00,,---,0.00,VWS V14.01,2013-04-09 05:17:00,
2013-04-09 01:22:00,45.5,41.3,29.99,NNW,332,16.1,19.2,85,0.00,,---,0.00,VWS V14.01,2013-04-09 05:22:00,
2013-04-09 01:27:00,45.5,41.3,29.99,NW,323,8.1,12.5,85,0.00,,---,0.00,VWS V14.01,2013-04-09 05:27:00,
2013-04-09 01:32:00,45.5,41.3,29.99,NNW,347,17.4,19.2,85,0.00,,---,0.00,VWS V14.01,2013-04-09 05:32:00,
2013-04-09 01:37:00,45.5,41.3,29.99,NNW,328,6.3,11.6,85,0.00,,---,0.00,VWS V14.01,2013-04-09 05:37:00,
2013-04-09 01:42:00,45.3,41.1,29.99,NNW,327,11.6,11.6,85,0.00,,---,0.00,VWS V14.01,2013-04-09 05:42:00,
2013-04-09 01:47:00,45.3,41.1,29.99,NNW,327,4.5,5.4,85,0.00,,---,0.00,VWS V14.01,2013-04-09 05:47:00,
2013-04-09 01:52:00,45.1,40.9,30.02,WNW,293,6.3,10.7,85,0.00,,---,0.00,VWS V14.01,2013-04-09 05:52:00,
2013-04-09 01:57:00,45.1,40.9,30.02,NNW,333,12.5,12.5,85,0.00,,---,0.00,VWS V14.01,2013-04-09 05:57:00,
2013-04-09 02:02:00,45.0,40.7,30.02,North,350,12.5,15.2,85,0.00,,---,0.00,VWS V14.01,2013-04-09 06:02:00,
2013-04-09 02:08:00,44.8,40.5,30.02,NW,305,6.3,10.7,85,0.00,,---,0.00,VWS V14.01,2013-04-09 06:08:00,
2013-04-09 02:13:00,44.8,40.5,30.02,NNW,336,9.8,16.1,85,0.00,,---,0.00,VWS V14.01,2013-04-09 06:13:00,
2013-04-09 02:18:00,44.8,40.9,30.02,NNW,345,10.7,16.1,86,0.00,,---,0.00,VWS V14.01,2013-04-09 06:18:00,
2013-04-09 02:23:00,44.6,40.7,30.02,NNW,331,14.3,21.0,86,0.00,,---,0.00,VWS V14.01,2013-04-09 06:23:00,
2013-04-09 02:28:00,44.6,40.7,30.02,North,353,10.7,10.7,86,0.00,,---,0.00,VWS V14.01,2013-04-09 06:28:00,
2013-04-09 02:33:00,44.4,40.5,30.02,NW,318,21.9,21.9,86,0.00,,---,0.00,VWS V14.01,2013-04-09 06:33:00,
2013-04-09 02:38:00,44.2,40.3,30.02,NW,322,11.6,18.3,86,0.00,,---,0.00,VWS V14.01,2013-04-09 06:38:00,
2013-04-09 02:43:00,44.2,40.3,30.02,NNW,327,9.8,9.8,86,0.00,,---,0.00,VWS V14.01,2013-04-09 06:43:00,
2013-04-09 02:48:00,44.1,40.2,30.02,NNW,336,7.2,9.8,86,0.00,,---,0.00,VWS V14.01,2013-04-09 06:48:00,
2013-04-09 02:53:00,44.1,40.5,30.02,North,358,25.5,25.5,87,0.00,,---,0.00,VWS V14.01,2013-04-09 06:53:00,
2013-04-09 02:58:00,44.1,40.5,30.02,North,2,16.1,16.1,87,0.00,,---,0.00,VWS V14.01,2013-04-09 06:58:00,
2013-04-09 03:03:00,43.9,40.3,30.02,WNW,303,8.1,15.2,87,0.00,,---,0.00,VWS V14.01,2013-04-09 07:03:00,
2013-04-09 03:08:00,43.7,40.1,30.02,NNW,346,7.2,11.6,87,0.00,,---,0.00,VWS V14.01,2013-04-09 07:08:00,
2013-04-09 03:13:00,43.5,39.9,30.02,North,356,15.2,15.2,87,0.00,,---,0.00,VWS V14.01,2013-04-09 07:13:00,
2013-04-09 03:18:00,43.5,39.9,30.02,NW,323,10.7,11.6,87,0.00,,---,0.00,VWS V14.01,2013-04-09 07:18:00,
2013-04-09 03:23:00,43.3,39.7,30.02,North,358,10.7,10.7,87,0.00,,---,0.00,VWS V14.01,2013-04-09 07:23:00,
2013-04-09 03:28:00,43.2,39.6,30.02,NNW,328,10.7,10.7,87,0.00,,---,0.00,VWS V14.01,2013-04-09 07:28:00,
2013-04-09 03:34:00,43.0,39.4,30.02,NW,324,8.1,12.5,87,0.00,,---,0.00,VWS V14.01,2013-04-09 07:34:00,
2013-04-09 03:39:00,43.0,39.4,30.02,NNW,338,0.0,5.4,87,0.00,,---,0.00,VWS V14.01,2013-04-09 07:39:00,
2013-04-09 03:44:00,43.0,39.4,30.02,North,1,0.0,0.0,87,0.00,,---,0.00,VWS V14.01,2013-04-09 07:44:00,
2013-04-09 03:49:00,43.0,39.4,30.02,NNW,336,0.0,5.4,87,0.00,,---,0.00,VWS V14.01,2013-04-09 07:49:00,
2013-04-09 03:54:00,43.0,39.4,30.02,North,353,5.4,7.2,87,0.00,,---,0.00,VWS V14.01,2013-04-09 07:54:00,
2013-04-09 03:59:00,43.0,39.4,30.02,East,98,0.0,0.0,87,0.00,,---,0.00,VWS V14.01,2013-04-09 07:59:00,
2013-04-09 04:04:00,43.0,39.4,30.02,NNW,344,0.0,4.5,87,0.00,,---,0.00,VWS V14.01,2013-04-09 08:04:00,
2013-04-09 04:09:00,43.0,39.4,30.02,NE,48,0.0,0.0,87,0.00,,---,0.00,VWS V14.01,2013-04-09 08:09:00,
2013-04-09 04:15:00,43.0,39.4,30.02,NNE,14,0.0,0.0,87,0.00,,---,0.00,VWS V14.01,2013-04-09 08:15:00,
2013-04-09 04:20:00,42.8,39.2,30.02,North,358,0.0,0.0,87,0.00,,---,0.00,VWS V14.01,2013-04-09 08:20:00,
2013-04-09 04:25:00,42.8,39.2,30.02,NNE,26,0.0,0.0,87,0.00,,---,0.00,VWS V14.01,2013-04-09 08:25:00,
2013-04-09 04:30:00,42.8,39.2,30.02,NNE,26,0.0,0.0,87,0.00,,---,0.00,VWS V14.01,2013-04-09 08:30:00,
2013-04-09 04:35:00,42.8,39.2,30.02,NNE,31,0.0,0.0,87,0.00,,---,0.00,VWS V14.01,2013-04-09 08:35:00,
2013-04-09 04:40:00,42.8,39.2,30.05,NE,38,0.0,0.0,87,0.00,,---,0.00,VWS V14.01,2013-04-09 08:40:00,
2013-04-09 04:45:00,42.6,39.3,30.05,NE,50,0.0,0.0,88,0.00,,---,0.00,VWS V14.01,2013-04-09 08:45:00,
2013-04-09 04:50:00,42.4,39.1,30.05,NNW,343,5.4,6.3,88,0.00,,---,0.00,VWS V14.01,2013-04-09 08:50:00,
2013-04-09 04:55:00,42.3,39.0,30.05,NNW,347,0.0,0.0,88,0.00,,---,0.00,VWS V14.01,2013-04-09 08:55:00,
2013-04-09 05:00:00,42.3,39.0,30.05,NNW,347,0.0,0.0,88,0.00,,---,0.00,VWS V14.01,2013-04-09 09:00:00,
2013-04-09 05:05:00,42.1,38.8,30.05,North,10,0.0,0.0,88,0.00,,---,0.00,VWS V14.01,2013-04-09 09:05:00,
2013-04-09 05:10:00,42.1,38.8,30.05,NNE,21,0.0,0.0,88,0.00,,---,0.00,VWS V14.01,2013-04-09 09:10:00,
2013-04-09 05:16:00,41.9,38.6,30.05,NNE,21,0.0,0.0,88,0.00,,---,0.00,VWS V14.01,2013-04-09 09:16:00,
2013-04-09 05:21:00,41.9,38.6,30.05,SSE,162,0.0,0.0,88,0.00,,---,0.00,VWS V14.01,2013-04-09 09:21:00,
2013-04-09 05:26:00,41.7,38.4,30.05,SSE,158,0.0,0.0,88,0.00,,---,0.00,VWS V14.01,2013-04-09 09:26:00,
2013-04-09 05:31:00,41.7,38.4,30.05,SSE,158,0.0,0.0,88,0.00,,---,0.00,VWS V14.01,2013-04-09 09:31:00,
2013-04-09 05:36:00,41.5,38.3,30.05,SSE,158,0.0,0.0,88,0.00,,---,0.00,VWS V14.01,2013-04-09 09:36:00,
2013-04-09 05:41:00,41.5,38.3,30.05,SSE,158,0.0,0.0,88,0.00,,---,0.00,VWS V14.01,2013-04-09 09:41:00,
2013-04-09 05:46:00,41.5,38.3,30.05,SSE,158,0.0,0.0,88,0.00,,---,0.00,VWS V14.01,2013-04-09 09:46:00,
2013-04-09 05:51:00,41.4,38.1,30.05,SSE,158,0.0,0.0,88,0.00,,---,0.00,VWS V14.01,2013-04-09 09:51:00,
2013-04-09 05:56:00,41.4,38.1,30.05,SSE,158,0.0,0.0,88,0.00,,---,0.00,VWS V14.01,2013-04-09 09:56:00,
2013-04-09 06:01:00,41.4,38.1,30.05,SSE,158,0.0,0.0,88,0.00,,---,0.00,VWS V14.01,2013-04-09 10:01:00,
2013-04-09 06:07:00,41.4,38.4,30.05,SSE,158,0.0,0.0,89,0.00,,---,0.00,VWS V14.01,2013-04-09 10:07:00,
2013-04-09 06:12:00,41.4,38.4,30.08,SSE,158,0.0,0.0,89,0.00,,---,0.00,VWS V14.01,2013-04-09 10:12:00,
2013-04-09 06:17:00,41.4,38.4,30.08,SSE,158,0.0,0.0,89,0.00,,---,0.00,VWS V14.01,2013-04-09 10:17:00,
2013-04-09 06:22:00,41.4,38.4,30.08,SSE,158,0.0,0.0,89,0.00,,---,0.00,VWS V14.01,2013-04-09 10:22:00,
2013-04-09 06:27:00,41.4,38.4,30.08,SSE,158,0.0,0.0,89,0.00,,---,0.00,VWS V14.01,2013-04-09 10:27:00,
2013-04-09 06:32:00,41.4,38.4,30.08,SSE,158,0.0,0.0,89,0.00,,---,0.00,VWS V14.01,2013-04-09 10:32:00,
2013-04-09 06:37:00,41.4,38.4,30.08,SSE,158,0.0,0.0,89,0.00,,---,0.00,VWS V14.01,2013-04-09 10:37:00,
2013-04-09 06:42:00,41.4,38.4,30.08,SSE,158,0.0,0.0,89,0.00,,---,0.00,VWS V14.01,2013-04-09 10:42:00,
2013-04-09 06:47:00,41.2,38.2,30.08,SSE,158,0.0,0.0,89,0.00,,---,0.00,VWS V14.01,2013-04-09 10:47:00,
2013-04-09 06:52:00,41.2,38.2,30.08,SSE,158,0.0,0.0,89,0.00,,---,0.00,VWS V14.01,2013-04-09 10:52:00,
2013-04-09 06:57:00,41.2,38.2,30.08,SSE,158,0.0,0.0,89,0.00,,---,0.00,VWS V14.01,2013-04-09 10:57:00,
2013-04-09 07:02:00,41.2,38.2,30.08,SSE,158,0.0,0.0,89,0.00,,---,0.00,VWS V14.01,2013-04-09 11:02:00,
2013-04-09 07:07:00,41.2,38.2,30.08,SSE,148,0.0,0.0,89,0.00,,---,0.00,VWS V14.01,2013-04-09 11:07:00,
2013-04-09 07:12:00,41.2,38.2,30.08,SSE,148,0.0,0.0,89,0.00,,---,0.00,VWS V14.01,2013-04-09 11:12:00,
2013-04-09 07:17:00,41.2,38.5,30.08,SSE,148,0.0,0.0,90,0.00,,---,0.00,VWS V14.01,2013-04-09 11:17:00,
2013-04-09 07:22:00,41.2,38.5,30.08,SSE,148,0.0,0.0,90,0.00,,---,0.00,VWS V14.01,2013-04-09 11:22:00,
2013-04-09 07:27:00,41.2,38.5,30.08,SSE,148,0.0,0.0,90,0.00,,---,0.00,VWS V14.01,2013-04-09 11:27:00,
2013-04-09 07:33:00,41.0,38.3,30.08,SE,142,0.0,0.0,90,0.00,,---,0.00,VWS V14.01,2013-04-09 11:33:00,
2013-04-09 07:38:00,41.0,38.3,30.08,SE,142,0.0,0.0,90,0.00,,---,0.00,VWS V14.01,2013-04-09 11:38:00,
2013-04-09 07:43:00,41.0,38.3,30.08,SE,142,0.0,0.0,90,0.00,,---,0.00,VWS V14.01,2013-04-09 11:43:00,
2013-04-09 07:48:00,41.0,38.3,30.08,SE,142,0.0,0.0,90,0.00,,---,0.00,VWS V14.01,2013-04-09 11:48:00,
2013-04-09 07:53:00,41.0,38.3,30.08,SE,142,0.0,0.0,90,0.00,,---,0.00,VWS V14.01,2013-04-09 11:53:00,
2013-04-09 07:58:00,41.2,38.8,30.08,SE,142,0.0,0.0,91,0.00,,---,0.00,VWS V14.01,2013-04-09 11:58:00,
2013-04-09 08:03:00,41.2,38.8,30.08,SE,142,0.0,0.0,91,0.00,,---,0.00,VWS V14.01,2013-04-09 12:03:00,
2013-04-09 08:08:00,41.4,38.9,30.08,SE,142,0.0,0.0,91,0.00,,---,0.00,VWS V14.01,2013-04-09 12:08:00,
2013-04-09 08:13:00,41.4,38.9,30.08,SE,142,0.0,0.0,91,0.00,,---,0.00,VWS V14.01,2013-04-09 12:13:00,
2013-04-09 08:18:00,41.5,39.1,30.08,SE,132,0.0,0.0,91,0.00,,---,0.00,VWS V14.01,2013-04-09 12:18:00,
2013-04-09 08:23:00,41.5,39.1,30.08,SE,133,0.0,0.0,91,0.00,,---,0.00,VWS V14.01,2013-04-09 12:23:00,
2013-04-09 08:28:00,41.5,39.1,30.08,SE,130,0.0,0.0,91,0.00,,---,0.00,VWS V14.01,2013-04-09 12:28:00,
2013-04-09 08:33:00,41.7,39.3,30.08,ESE,110,0.0,0.0,91,0.00,,---,0.00,VWS V14.01,2013-04-09 12:33:00,
2013-04-09 08:38:00,41.7,39.3,30.08,ESE,107,0.0,0.0,91,0.00,,---,0.00,VWS V14.01,2013-04-09 12:38:00,
2013-04-09 08:43:00,41.9,39.5,30.08,ESE,108,0.0,0.0,91,0.00,,---,0.00,VWS V14.01,2013-04-09 12:43:00,
2013-04-09 08:48:00,41.9,39.5,30.08,ESE,108,0.0,0.0,91,0.00,,---,0.00,VWS V14.01,2013-04-09 12:48:00,
2013-04-09 08:53:00,42.1,39.9,30.08,ESE,112,0.0,4.5,92,0.00,,---,0.00,VWS V14.01,2013-04-09 12:53:00,
2013-04-09 08:58:00,42.1,39.9,30.08,SE,135,0.0,0.0,92,0.00,,---,0.00,VWS V14.01,2013-04-09 12:58:00,
2013-04-09 09:03:00,42.3,40.1,30.08,ESE,121,6.3,8.1,92,0.00,,---,0.00,VWS V14.01,2013-04-09 13:03:00,
2013-04-09 09:09:00,42.6,40.5,30.08,ESE,112,0.0,0.0,92,0.00,,---,0.00,VWS V14.01,2013-04-09 13:09:00,
2013-04-09 09:14:00,42.8,40.6,30.08,ESE,111,7.2,7.2,92,0.00,,---,0.00,VWS V14.01,2013-04-09 13:14:00,
2013-04-09 09:19:00,42.8,40.6,30.08,ESE,112,0.0,0.0,92,0.00,,---,0.00,VWS V14.01,2013-04-09 13:19:00,
2013-04-09 09:24:00,43.0,40.8,30.08,East,95,4.5,4.5,92,0.00,,---,0.00,VWS V14.01,2013-04-09 13:24:00,
2013-04-09 09:29:00,43.3,41.2,30.08,ESE,120,4.5,5.4,92,0.00,,---,0.00,VWS V14.01,2013-04-09 13:29:00,
2013-04-09 09:34:00,43.5,41.3,30.08,ESE,114,5.4,5.4,92,0.00,,---,0.00,VWS V14.01,2013-04-09 13:34:00,
2013-04-09 09:40:00,43.5,41.3,30.05,SE,126,0.0,0.0,92,0.00,,---,0.00,VWS V14.01,2013-04-09 13:40:00,
2013-04-09 09:45:00,43.7,41.5,30.05,ESE,104,5.4,7.2,92,0.00,,---,0.00,VWS V14.01,2013-04-09 13:45:00,
2013-04-09 09:50:00,43.9,41.7,30.05,ESE,114,0.0,0.0,92,0.00,,---,0.00,VWS V14.01,2013-04-09 13:50:00,
2013-04-09 09:55:00,44.1,41.9,30.05,ESE,114,0.0,5.4,92,0.00,,---,0.00,VWS V14.01,2013-04-09 13:55:00,
2013-04-09 10:00:00,44.2,42.1,30.05,ESE,113,0.0,6.3,92,0.00,,---,0.00,VWS V14.01,2013-04-09 14:00:00,
2013-04-09 10:05:00,44.4,42.2,30.05,SSE,160,0.0,7.2,92,0.00,,---,0.00,VWS V14.01,2013-04-09 14:05:00,
2013-04-09 10:10:00,44.6,42.1,30.05,ESE,121,5.4,5.4,91,0.00,,---,0.00,VWS V14.01,2013-04-09 14:10:00,
2013-04-09 10:15:00,44.6,42.1,30.05,ESE,118,5.4,5.4,91,0.00,,---,0.00,VWS V14.01,2013-04-09 14:15:00,
2013-04-09 10:20:00,45.1,43.0,30.05,SE,136,4.5,6.3,92,0.00,,---,0.00,VWS V14.01,2013-04-09 14:20:00,
2013-04-09 10:25:00,45.5,43.3,30.05,ESE,117,6.3,7.2,92,0.00,,---,0.00,VWS V14.01,2013-04-09 14:25:00,
2013-04-09 10:31:00,46.2,44.0,30.05,South,176,4.5,5.4,92,0.00,,---,0.00,VWS V14.01,2013-04-09 14:31:00,
2013-04-09 10:36:00,46.8,44.3,30.05,ESE,121,7.2,7.2,91,0.00,,---,0.00,VWS V14.01,2013-04-09 14:36:00,
2013-04-09 10:41:00,47.5,45.0,30.05,East,101,0.0,6.3,91,0.00,,---,0.00,VWS V14.01,2013-04-09 14:41:00,
2013-04-09 10:46:00,48.0,45.5,30.05,SSE,167,10.7,10.7,91,0.00,,---,0.00,VWS V14.01,2013-04-09 14:46:00,
2013-04-09 10:51:00,48.0,44.9,30.05,SE,143,6.3,12.5,89,0.00,,---,0.00,VWS V14.01,2013-04-09 14:51:00,
2013-04-09 10:56:00,47.8,44.5,30.08,SSE,150,0.0,6.3,88,0.00,,---,0.00,VWS V14.01,2013-04-09 14:56:00,
2013-04-09 11:01:00,48.2,44.8,30.08,SE,139,5.4,11.6,88,0.00,,---,0.00,VWS V14.01,2013-04-09 15:01:00,
2013-04-09 11:06:00,48.6,45.2,30.08,ESE,121,4.5,5.4,88,0.00,,---,0.00,VWS V14.01,2013-04-09 15:06:00,
2013-04-09 11:12:00,48.6,44.6,30.08,SSE,163,5.4,10.7,86,0.00,,---,0.00,VWS V14.01,2013-04-09 15:12:00,
2013-04-09 11:17:00,48.7,44.8,30.08,SE,124,5.4,5.4,86,0.00,,---,0.00,VWS V14.01,2013-04-09 15:17:00,
2013-04-09 11:22:00,48.6,44.3,30.05,ESE,119,0.0,0.0,85,0.00,,---,0.00,VWS V14.01,2013-04-09 15:22:00,
2013-04-09 11:27:00,48.4,43.8,30.05,SE,146,0.0,0.0,84,0.00,,---,0.00,VWS V14.01,2013-04-09 15:27:00,
2013-04-09 11:32:00,48.4,43.8,30.05,ESE,122,0.0,0.0,84,0.00,,---,0.00,VWS V14.01,2013-04-09 15:32:00,
2013-04-09 11:37:00,48.2,43.3,30.05,SSE,149,6.3,6.3,83,0.00,,---,0.00,VWS V14.01,2013-04-09 15:37:00,
2013-04-09 11:42:00,48.0,43.1,30.08,ESE,111,5.4,5.4,83,0.00,,---,0.00,VWS V14.01,2013-04-09 15:42:00,
2013-04-09 11:47:00,47.8,42.9,30.08,SSE,159,0.0,0.0,83,0.00,,---,0.00,VWS V14.01,2013-04-09 15:47:00,
2013-04-09 11:52:00,47.8,42.9,30.08,SSE,154,0.0,0.0,83,0.00,,---,0.00,VWS V14.01,2013-04-09 15:52:00,
2013-04-09 11:57:00,47.7,42.4,30.05,SSE,156,5.4,5.4,82,0.00,,---,0.00,VWS V14.01,2013-04-09 15:57:00,
2013-04-09 12:02:00,47.7,42.4,30.05,SE,142,6.3,6.3,82,0.00,,---,0.00,VWS V14.01,2013-04-09 16:02:00,
2013-04-09 12:08:00,47.5,42.3,30.02,ESE,106,0.0,6.3,82,0.00,,---,0.00,VWS V14.01,2013-04-09 16:08:00,
2013-04-09 12:13:00,47.5,42.3,30.02,SE,129,0.0,5.4,82,0.00,,---,0.00,VWS V14.01,2013-04-09 16:13:00,
2013-04-09 12:18:00,47.5,42.3,30.02,SE,131,0.0,5.4,82,0.00,,---,0.00,VWS V14.01,2013-04-09 16:18:00,
2013-04-09 12:23:00,47.3,42.1,30.02,SE,127,0.0,0.0,82,0.00,,---,0.00,VWS V14.01,2013-04-09 16:23:00,
2013-04-09 12:28:00,47.3,42.1,30.02,SE,140,4.5,5.4,82,0.00,,---,0.00,VWS V14.01,2013-04-09 16:28:00,
2013-04-09 12:33:00,47.3,42.1,30.02,SSE,158,4.5,5.4,82,0.00,,---,0.00,VWS V14.01,2013-04-09 16:33:00,
2013-04-09 12:38:00,47.3,42.4,30.02,SSE,152,6.3,6.3,83,0.00,,---,0.00,VWS V14.01,2013-04-09 16:38:00,
2013-04-09 12:43:00,47.1,42.2,30.02,ESE,114,0.0,0.0,83,0.00,,---,0.00,VWS V14.01,2013-04-09 16:43:00,
2013-04-09 12:48:00,47.1,42.2,30.02,SE,134,4.5,5.4,83,0.00,,---,0.00,VWS V14.01,2013-04-09 16:48:00,
2013-04-09 12:53:00,47.1,42.2,30.02,SE,139,0.0,0.0,83,0.00,,---,0.00,VWS V14.01,2013-04-09 16:53:00,
2013-04-09 12:58:00,47.1,42.5,30.02,SE,138,4.5,4.5,84,0.00,,---,0.00,VWS V14.01,2013-04-09 16:58:00,
2013-04-09 13:03:00,46.9,42.4,30.02,ESE,114,7.2,7.2,84,0.00,,---,0.00,VWS V14.01,2013-04-09 17:03:00,
2013-04-09 13:08:00,46.9,42.4,29.99,ESE,119,0.0,0.0,84,0.00,,---,0.00,VWS V14.01,2013-04-09 17:08:00,
2013-04-09 13:13:00,47.1,42.5,29.99,SE,126,0.0,0.0,84,0.00,,---,0.00,VWS V14.01,2013-04-09 17:13:00,
2013-04-09 13:18:00,47.3,42.7,29.99,East,101,0.0,7.2,84,0.00,,---,0.00,VWS V14.01,2013-04-09 17:18:00,
2013-04-09 13:23:00,47.3,42.7,29.99,East,98,0.0,0.0,84,0.00,,---,0.00,VWS V14.01,2013-04-09 17:23:00,
2013-04-09 13:29:00,47.3,43.0,29.99,SE,137,0.0,0.0,85,0.00,,---,0.00,VWS V14.01,2013-04-09 17:29:00,
2013-04-09 13:34:00,47.5,43.2,29.99,SSE,149,0.0,0.0,85,0.00,,---,0.00,VWS V14.01,2013-04-09 17:34:00,
2013-04-09 13:39:00,47.7,43.4,29.99,ESE,106,0.0,0.0,85,0.00,,---,0.00,VWS V14.01,2013-04-09 17:39:00,
2013-04-09 13:44:00,47.7,43.4,29.99,ESE,110,0.0,5.4,85,0.00,,---,0.00,VWS V14.01,2013-04-09 17:44:00,
2013-04-09 13:49:00,47.8,43.6,29.99,ESE,104,0.0,0.0,85,0.00,,---,0.00,VWS V14.01,2013-04-09 17:49:00,
2013-04-09 13:54:00,48.0,43.7,29.96,ESE,110,0.0,0.0,85,0.00,,---,0.00,VWS V14.01,2013-04-09 17:54:00,
2013-04-09 13:59:00,48.2,43.6,29.96,ESE,119,0.0,0.0,84,0.00,,---,0.00,VWS V14.01,2013-04-09 17:59:00,
2013-04-09 14:04:00,48.4,44.1,29.96,ESE,119,0.0,0.0,85,0.00,,---,0.00,VWS V14.01,2013-04-09 18:04:00,
2013-04-09 14:09:00,48.4,43.8,29.96,ESE,114,0.0,0.0,84,0.00,,---,0.00,VWS V14.01,2013-04-09 18:09:00,
2013-04-09 14:14:00,48.6,44.0,29.96,ESE,105,8.1,9.8,84,0.00,,---,0.00,VWS V14.01,2013-04-09 18:14:00,
2013-04-09 14:20:00,48.6,44.0,29.96,ESE,103,0.0,0.0,84,0.00,,---,0.00,VWS V14.01,2013-04-09 18:20:00,
2013-04-09 14:25:00,48.7,44.1,29.96,East,97,0.0,0.0,84,0.00,,---,0.00,VWS V14.01,2013-04-09 18:25:00,
2013-04-09 14:30:00,49.1,44.8,29.96,ESE,109,0.0,4.5,85,0.00,,---,0.00,VWS V14.01,2013-04-09 18:30:00,
2013-04-09 14:35:00,49.3,45.0,29.96,East,91,0.0,5.4,85,0.00,,---,0.00,VWS V14.01,2013-04-09 18:35:00,
2013-04-09 14:40:00,49.8,45.5,29.96,ESE,105,0.0,5.4,85,0.00,,---,0.00,VWS V14.01,2013-04-09 18:40:00,
2013-04-09 14:45:00,50.2,45.5,29.96,ESE,102,6.3,9.8,84,0.00,,---,0.00,VWS V14.01,2013-04-09 18:45:00,
2013-04-09 14:50:00,50.9,46.6,29.96,ESE,122,0.0,0.0,85,0.00,,---,0.00,VWS V14.01,2013-04-09 18:50:00,
2013-04-09 14:55:00,51.3,46.6,29.93,ESE,112,0.0,0.0,84,0.00,,---,0.00,VWS V14.01,2013-04-09 18:55:00,
2013-04-09 15:00:00,51.4,46.8,29.93,SSE,149,0.0,0.0,84,0.00,,---,0.00,VWS V14.01,2013-04-09 19:00:00,
2013-04-09 15:05:00,51.4,46.8,29.93,SE,145,0.0,0.0,84,0.00,,---,0.00,VWS V14.01,2013-04-09 19:05:00,
2013-04-09 15:10:00,51.4,46.5,29.93,ESE,123,4.5,4.5,83,0.00,,---,0.00,VWS V14.01,2013-04-09 19:10:00,
2013-04-09 15:15:00,51.4,46.5,29.93,ESE,123,0.0,0.0,83,0.00,,---,0.00,VWS V14.01,2013-04-09 19:15:00,
2013-04-09 15:20:00,51.3,46.0,29.93,ESE,114,0.0,0.0,82,0.00,,---,0.00,VWS V14.01,2013-04-09 19:20:00,
2013-04-09 15:25:00,51.1,45.5,29.93,SE,126,0.0,0.0,81,0.00,,---,0.00,VWS V14.01,2013-04-09 19:25:00,
2013-04-09 15:31:00,50.9,45.3,29.93,ESE,109,0.0,0.0,81,0.00,,---,0.00,VWS V14.01,2013-04-09 19:31:00,
2013-04-09 15:36:00,50.9,45.3,29.93,SE,131,4.5,4.5,81,0.00,,---,0.00,VWS V14.01,2013-04-09 19:36:00,
2013-04-09 15:41:00,50.7,45.1,29.93,ESE,117,0.0,0.0,81,0.00,,---,0.00,VWS V14.01,2013-04-09 19:41:00,
2013-04-09 15:46:00,50.7,45.1,29.93,SE,136,0.0,0.0,81,0.00,,---,0.00,VWS V14.01,2013-04-09 19:46:00,
2013-04-09 15:51:00,50.7,45.1,29.93,East,100,0.0,5.4,81,0.00,,---,0.00,VWS V14.01,2013-04-09 19:51:00,
2013-04-09 15:56:00,50.7,44.8,29.90,SE,127,0.0,0.0,80,0.00,,---,0.00,VWS V14.01,2013-04-09 19:56:00,
2013-04-09 16:01:00,50.7,44.8,29.90,SE,128,0.0,0.0,80,0.00,,---,0.00,VWS V14.01,2013-04-09 20:01:00,
2013-04-09 16:06:00,50.7,44.8,29.90,SE,129,0.0,0.0,80,0.00,,---,0.00,VWS V14.01,2013-04-09 20:06:00,
2013-04-09 16:11:00,50.7,44.5,29.90,SE,130,0.0,0.0,79,0.00,,---,0.00,VWS V14.01,2013-04-09 20:11:00,
2013-04-09 16:16:00,50.7,44.5,29.90,SE,130,0.0,0.0,79,0.00,,---,0.00,VWS V14.01,2013-04-09 20:16:00,
2013-04-09 16:21:00,50.7,44.5,29.90,SE,138,0.0,0.0,79,0.00,,---,0.00,VWS V14.01,2013-04-09 20:21:00,
2013-04-09 16:26:00,50.7,44.5,29.90,East,98,0.0,0.0,79,0.00,,---,0.00,VWS V14.01,2013-04-09 20:26:00,
2013-04-09 16:32:00,50.9,44.6,29.90,ESE,106,0.0,0.0,79,0.00,,---,0.00,VWS V14.01,2013-04-09 20:32:00,
2013-04-09 16:37:00,50.9,44.6,29.90,ESE,106,0.0,0.0,79,0.00,,---,0.00,VWS V14.01,2013-04-09 20:37:00,
2013-04-09 16:42:00,50.9,44.6,29.90,North,359,4.5,4.5,79,0.00,,---,0.00,VWS V14.01,2013-04-09 20:42:00,
2013-04-09 16:47:00,50.9,44.6,29.90,North,11,0.0,0.0,79,0.00,,---,0.00,VWS V14.01,2013-04-09 20:47:00,
2013-04-09 16:52:00,50.7,44.5,29.90,ENE,72,0.0,0.0,79,0.00,,---,0.00,VWS V14.01,2013-04-09 20:52:00,
2013-04-09 16:57:00,50.5,44.3,29.90,NE,38,0.0,6.3,79,0.00,,---,0.00,VWS V14.01,2013-04-09 20:57:00,
2013-04-09 17:02:00,50.4,44.1,29.90,SE,133,0.0,0.0,79,0.00,,---,0.00,VWS V14.01,2013-04-09 21:02:00,
2013-04-09 17:07:00,50.2,44.3,29.90,NE,51,0.0,0.0,80,0.00,,---,0.00,VWS V14.01,2013-04-09 21:07:00,
2013-04-09 17:12:00,50.0,44.1,29.90,ENE,75,0.0,9.8,80,0.00,,---,0.00,VWS V14.01,2013-04-09 21:12:00,
2013-04-09 17:17:00,49.8,43.9,29.90,East,83,0.0,0.0,80,0.00,,---,0.00,VWS V14.01,2013-04-09 21:17:00,
2013-04-09 17:22:00,49.5,43.6,29.90,ENE,63,0.0,5.4,80,0.00,,---,0.00,VWS V14.01,2013-04-09 21:22:00,
2013-04-09 17:27:00,49.1,43.2,29.90,East,79,0.0,0.0,80,0.00,,---,0.00,VWS V14.01,2013-04-09 21:27:00,
2013-04-09 17:32:00,48.7,42.9,29.90,NE,48,0.0,0.0,80,0.00,,---,0.00,VWS V14.01,2013-04-09 21:32:00,
2013-04-09 17:37:00,48.6,43.0,29.90,NNE,32,0.0,7.2,81,0.00,,---,0.00,VWS V14.01,2013-04-09 21:37:00,
2013-04-09 17:43:00,48.4,42.8,29.90,East,97,5.4,11.6,81,0.00,,---,0.00,VWS V14.01,2013-04-09 21:43:00,
2013-04-09 17:48:00,48.4,42.8,29.90,NE,48,0.0,0.0,81,0.00,,---,0.00,VWS V14.01,2013-04-09 21:48:00,
2013-04-09 17:53:00,48.2,42.7,29.90,ENE,59,0.0,0.0,81,0.00,,---,0.00,VWS V14.01,2013-04-09 21:53:00,
2013-04-09 17:58:00,48.0,42.8,29.90,ENE,77,0.0,0.0,82,0.00,,---,0.00,VWS V14.01,2013-04-09 21:58:00,
2013-04-09 18:03:00,48.0,42.8,29.90,ESE,122,0.0,0.0,82,0.00,,---,0.00,VWS V14.01,2013-04-09 22:03:00,
2013-04-09 18:08:00,47.8,42.6,29.90,ESE,122,0.0,0.0,82,0.00,,---,0.00,VWS V14.01,2013-04-09 22:08:00,
2013-04-09 18:13:00,47.8,42.6,29.90,East,101,0.0,0.0,82,0.00,,---,0.00,VWS V14.01,2013-04-09 22:13:00,
2013-04-09 18:18:00,47.7,42.8,29.90,East,100,0.0,0.0,83,0.00,,---,0.00,VWS V14.01,2013-04-09 22:18:00,
2013-04-09 18:23:00,47.7,42.8,29.90,SE,132,0.0,0.0,83,0.00,,---,0.00,VWS V14.01,2013-04-09 22:23:00,
2013-04-09 18:28:00,47.7,42.8,29.90,SE,132,0.0,0.0,83,0.00,,---,0.00,VWS V14.01,2013-04-09 22:28:00,
2013-04-09 18:33:00,47.7,42.8,29.90,SE,132,0.0,0.0,83,0.00,,---,0.00,VWS V14.01,2013-04-09 22:33:00,
2013-04-09 18:38:00,47.7,42.8,29.90,SE,124,0.0,0.0,83,0.00,,---,0.00,VWS V14.01,2013-04-09 22:38:00,
2013-04-09 18:43:00,47.5,42.6,29.90,East,90,0.0,0.0,83,0.00,,---,0.00,VWS V14.01,2013-04-09 22:43:00,
2013-04-09 18:48:00,47.5,42.9,29.90,East,90,0.0,0.0,84,0.00,,---,0.00,VWS V14.01,2013-04-09 22:48:00,
2013-04-09 18:53:00,47.5,42.9,29.90,East,90,0.0,0.0,84,0.00,,---,0.00,VWS V14.01,2013-04-09 22:53:00,
2013-04-09 18:58:00,47.5,42.9,29.90,East,90,0.0,0.0,84,0.00,,---,0.00,VWS V14.01,2013-04-09 22:58:00,
2013-04-09 19:03:00,47.5,42.9,29.90,East,90,0.0,0.0,84,0.00,,---,0.00,VWS V14.01,2013-04-09 23:03:00,
2013-04-09 19:08:00,47.3,43.0,29.90,NNE,18,0.0,0.0,85,0.00,,---,0.00,VWS V14.01,2013-04-09 23:08:00,
2013-04-09 19:13:00,47.3,43.0,29.90,NE,39,0.0,0.0,85,0.00,,---,0.00,VWS V14.01,2013-04-09 23:13:00,
2013-04-09 19:19:00,47.3,43.0,29.90,NE,40,0.0,0.0,85,0.00,,---,0.00,VWS V14.01,2013-04-09 23:19:00,
2013-04-09 19:24:00,47.1,42.8,29.93,NNW,343,7.2,15.2,85,0.00,,---,0.00,VWS V14.01,2013-04-09 23:24:00,
2013-04-09 19:29:00,47.1,42.8,29.93,SE,138,0.0,0.0,85,0.00,,---,0.00,VWS V14.01,2013-04-09 23:29:00,
2013-04-09 19:34:00,46.9,42.7,29.93,SE,138,0.0,0.0,85,0.00,,---,0.00,VWS V14.01,2013-04-09 23:34:00,
2013-04-09 19:39:00,46.9,42.7,29.90,NNE,26,0.0,0.0,85,0.00,,---,0.00,VWS V14.01,2013-04-09 23:39:00,
2013-04-09 19:44:00,46.9,43.0,29.90,ENE,76,0.0,0.0,86,0.00,,---,0.00,VWS V14.01,2013-04-09 23:44:00,
2013-04-09 19:49:00,46.9,43.0,29.90,SE,124,0.0,0.0,86,0.00,,---,0.00,VWS V14.01,2013-04-09 23:49:00,
2013-04-09 19:54:00,46.8,42.8,29.90,ESE,109,0.0,0.0,86,0.00,,---,0.00,VWS V14.01,2013-04-09 23:54:00,
2013-04-09 19:59:00,46.8,42.8,29.90,ESE,102,0.0,0.0,86,0.00,,---,0.00,VWS V14.01,2013-04-09 23:59:00,
2013-04-09 20:04:00,46.8,42.8,29.90,NE,47,0.0,0.0,86,0.00,,---,0.00,VWS V14.01,2013-04-10 00:04:00,
2013-04-09 20:09:00,46.6,42.6,29.90,ENE,77,0.0,0.0,86,0.00,,---,0.00,VWS V14.01,2013-04-10 00:09:00,
2013-04-09 20:14:00,46.6,42.9,29.90,ESE,105,0.0,0.0,87,0.00,,---,0.00,VWS V14.01,2013-04-10 00:14:00,
2013-04-09 20:19:00,46.4,42.8,29.90,ESE,110,0.0,0.0,87,0.00,,---,0.00,VWS V14.01,2013-04-10 00:19:00,
2013-04-09 20:24:00,46.4,42.8,29.90,ESE,110,0.0,0.0,87,0.00,,---,0.00,VWS V14.01,2013-04-10 00:24:00,
2013-04-09 20:29:00,46.4,42.8,29.90,ESE,110,0.0,0.0,87,0.00,,---,0.00,VWS V14.01,2013-04-10 00:29:00,
2013-04-09 20:34:00,46.2,42.6,29.90,ESE,110,0.0,0.0,87,0.00,,---,0.00,VWS V14.01,2013-04-10 00:34:00,
2013-04-09 20:39:00,46.2,42.9,29.90,ESE,110,0.0,0.0,88,0.00,,---,0.00,VWS V14.01,2013-04-10 00:39:00,
2013-04-09 20:44:00,46.2,42.9,29.90,ESE,110,0.0,0.0,88,0.00,,---,0.00,VWS V14.01,2013-04-10 00:44:00,
2013-04-09 20:49:00,46.4,43.0,29.90,NNE,25,0.0,0.0,88,0.00,,---,0.00,VWS V14.01,2013-04-10 00:49:00,
2013-04-09 20:55:00,46.4,43.0,29.93,NW,321,12.5,21.0,88,0.00,,---,0.00,VWS V14.01,2013-04-10 00:55:00,
2013-04-09 21:00:00,46.4,43.0,29.93,North,359,9.8,10.7,88,0.00,,---,0.00,VWS V14.01,2013-04-10 01:00:00,
2013-04-09 21:05:00,46.6,43.5,29.93,North,349,6.3,7.2,89,0.00,,---,0.00,VWS V14.01,2013-04-10 01:05:00,
2013-04-09 21:10:00,46.6,43.5,29.96,North,3,15.2,21.0,89,0.00,,---,0.00,VWS V14.01,2013-04-10 01:10:00,
2013-04-09 21:15:00,46.6,43.8,29.96,NW,317,4.5,4.5,90,0.00,,---,0.00,VWS V14.01,2013-04-10 01:15:00,
2013-04-09 21:20:00,46.6,43.8,29.96,ESE,122,0.0,0.0,90,0.00,,---,0.00,VWS V14.01,2013-04-10 01:20:00,
2013-04-09 21:25:00,46.4,43.6,29.90,NNE,25,0.0,0.0,90,0.00,,---,0.00,VWS V14.01,2013-04-10 01:25:00,
2013-04-09 21:30:00,46.4,43.6,29.90,ESE,104,0.0,0.0,90,0.00,,---,0.00,VWS V14.01,2013-04-10 01:30:00,
2013-04-09 21:35:00,46.4,43.6,29.90,North,2,7.2,7.2,90,0.00,,---,0.00,VWS V14.01,2013-04-10 01:35:00,
2013-04-09 21:40:00,46.6,43.8,29.93,NNW,344,0.0,0.0,90,0.00,,---,0.00,VWS V14.01,2013-04-10 01:40:00,
2013-04-09 21:45:00,46.6,44.1,29.93,NW,324,9.8,10.7,91,0.00,,---,0.00,VWS V14.01,2013-04-10 01:45:00,
2013-04-09 21:50:00,46.8,44.3,29.93,East,79,0.0,0.0,91,0.00,,---,0.00,VWS V14.01,2013-04-10 01:50:00,
2013-04-09 21:55:00,46.9,44.5,29.93,North,6,6.3,10.7,91,0.00,,---,0.00,VWS V14.01,2013-04-10 01:55:00,
2013-04-09 22:00:00,46.9,44.5,29.93,ENE,77,0.0,0.0,91,0.00,,---,0.00,VWS V14.01,2013-04-10 02:00:00,
2013-04-09 22:05:00,47.1,44.6,29.93,NW,322,8.1,8.1,91,0.00,,---,0.00,VWS V14.01,2013-04-10 02:05:00,
2013-04-09 22:10:00,47.1,44.6,29.96,NNW,343,0.0,0.0,91,0.00,,---,0.00,VWS V14.01,2013-04-10 02:10:00,
2013-04-09 22:15:00,47.3,44.8,29.96,North,356,0.0,8.1,91,0.00,,---,0.00,VWS V14.01,2013-04-10 02:15:00,
2013-04-09 22:20:00,47.3,44.8,29.96,NNW,332,7.2,7.2,91,0.00,,---,0.00,VWS V14.01,2013-04-10 02:20:00,
2013-04-09 22:25:00,47.3,44.8,29.96,NNW,336,8.1,12.5,91,0.00,,---,0.00,VWS V14.01,2013-04-10 02:25:00,
2013-04-09 22:30:00,47.3,45.1,29.96,NNE,21,8.1,11.6,92,0.00,,---,0.00,VWS V14.01,2013-04-10 02:30:00,
2013-04-09 22:36:00,47.3,45.1,29.96,NW,320,0.0,0.0,92,0.00,,---,0.00,VWS V14.01,2013-04-10 02:36:00,
2013-04-09 22:41:00,47.3,45.1,29.96,NNE,25,0.0,7.2,92,0.00,,---,0.00,VWS V14.01,2013-04-10 02:41:00,
2013-04-09 22:46:00,47.3,45.1,29.96,ENE,60,0.0,5.4,92,0.00,,---,0.00,VWS V14.01,2013-04-10 02:46:00,
2013-04-09 22:51:00,47.3,45.1,29.96,North,350,5.4,6.3,92,0.00,,---,0.00,VWS V14.01,2013-04-10 02:51:00,
2013-04-09 22:56:00,47.3,45.1,29.96,NNE,18,10.7,11.6,92,0.00,,---,0.00,VWS V14.01,2013-04-10 02:56:00,
2013-04-09 23:01:00,47.3,45.1,29.96,North,359,5.4,10.7,92,0.00,,---,0.00,VWS V14.01,2013-04-10 03:01:00,
2013-04-09 23:07:00,47.3,45.1,29.96,North,357,0.0,0.0,92,0.00,,---,0.00,VWS V14.01,2013-04-10 03:07:00,
2013-04-09 23:12:00,47.3,45.1,29.96,North,357,4.5,7.2,92,0.00,,---,0.00,VWS V14.01,2013-04-10 03:12:00,
2013-04-09 23:17:00,47.3,45.1,29.96,North,6,0.0,5.4,92,0.00,,---,0.00,VWS V14.01,2013-04-10 03:17:00,
2013-04-09 23:22:00,47.3,45.1,29.96,North,6,0.0,0.0,92,0.00,,---,0.00,VWS V14.01,2013-04-10 03:22:00,
2013-04-09 23:27:00,47.3,45.1,29.96,NNE,27,0.0,0.0,92,0.00,,---,0.00,VWS V14.01,2013-04-10 03:27:00,
2013-04-09 23:32:00,47.3,45.1,29.96,NNE,18,0.0,0.0,92,0.00,,---,0.00,VWS V14.01,2013-04-10 03:32:00,
2013-04-09 23:37:00,47.3,45.1,29.96,North,354,8.1,8.1,92,0.00,,---,0.00,VWS V14.01,2013-04-10 03:37:00,
2013-04-09 23:42:00,47.1,44.9,29.96,NNW,346,4.5,4.5,92,0.00,,---,0.00,VWS V14.01,2013-04-10 03:42:00,
2013-04-09 23:47:00,47.1,44.9,29.96,North,3,5.4,5.4,92,0.00,,---,0.00,VWS V14.01,2013-04-10 03:47:00,
2013-04-09 23:52:00,47.1,44.9,29.96,North,9,6.3,8.1,92,0.00,,---,0.00,VWS V14.01,2013-04-10 03:52:00,
2013-04-09 23:58:00,46.9,44.7,29.96,NE,44,0.0,11.6,92,0.00,,---,0.00,VWS V14.01,2013-04-10 03:58:00,